createdAt,value
2019-03-05T00:01:57.104Z,1.43
2019-03-05T00:04:26.240Z,1.20
2019-03-05T00:06:55.546Z,1.12
2019-03-05T00:09:24.721Z,1.03
2019-03-05T00:11:53.892Z,1.20
2019-03-05T00:14:26.083Z,1.00
2019-03-05T00:16:55.476Z,0.87
2019-03-05T00:19:24.892Z,0.80
2019-03-05T00:21:54.098Z,0.80
2019-03-05T00:25:00.608Z,1.42
2019-03-05T00:27:32.588Z,1.10
2019-03-05T00:30:46.538Z,1.32
2019-03-05T00:33:41.859Z,0.88
2019-03-05T00:36:27.452Z,0.57
2019-03-05T00:39:51.251Z,0.93
2019-03-05T00:42:46.629Z,0.70
2019-03-05T00:45:52.021Z,0.47
2019-03-05T00:49:02.110Z,0.67
2019-03-05T00:52:13.007Z,0.83
2019-03-05T00:55:04.440Z,0.75
2019-03-05T00:58:01.204Z,0.68
2019-03-05T01:00:52.111Z,0.53
2019-03-05T01:04:05.257Z,1.17
2019-03-05T01:06:34.475Z,0.77
2019-03-05T01:09:05.759Z,1.17
2019-03-05T01:11:35.256Z,0.90
2019-03-05T01:14:05.099Z,1.03
2019-03-05T01:16:34.589Z,1.60
2019-03-05T01:19:03.810Z,1.30
2019-03-05T01:21:33.211Z,0.85
2019-03-05T01:24:02.354Z,0.93
2019-03-05T01:26:31.573Z,1.10
2019-03-05T01:29:00.959Z,1.10
2019-03-05T01:31:52.137Z,1.40
2019-03-05T01:34:55.561Z,1.30
2019-03-05T01:37:24.793Z,1.50
2019-03-05T01:40:08.498Z,1.53
2019-03-05T01:42:38.155Z,1.60
2019-03-05T01:45:08.912Z,1.43
2019-03-05T01:47:38.049Z,1.90
2019-03-05T01:50:08.972Z,2.37
2019-03-05T01:52:38.093Z,1.25
2019-03-05T01:55:07.542Z,1.73
2019-03-05T01:57:36.848Z,2.03
2019-03-05T02:00:06.932Z,1.63
2019-03-05T02:02:36.155Z,1.73
2019-03-05T02:05:05.636Z,1.83
2019-03-05T02:07:34.763Z,1.10
2019-03-05T02:10:11.287Z,1.17
2019-03-05T02:12:40.672Z,1.30
2019-03-05T02:15:09.891Z,1.53
2019-03-05T02:17:39.028Z,1.57
2019-03-05T02:20:11.083Z,1.87
2019-03-05T02:23:12.932Z,1.10
2019-03-05T02:26:12.468Z,1.60
2019-03-05T02:29:15.525Z,2.00
2019-03-05T02:32:26.016Z,1.97
2019-03-05T02:35:27.816Z,1.67
2019-03-05T02:38:55.683Z,1.20
2019-03-05T02:41:48.468Z,1.90
2019-03-05T02:44:28.166Z,2.20
2019-03-05T02:47:42.252Z,1.97
2019-03-05T02:51:00.397Z,1.57
2019-03-05T02:54:10.606Z,1.60
2019-03-05T02:57:10.523Z,2.50
2019-03-05T02:59:39.914Z,1.82
2019-03-05T03:02:43.689Z,1.90
2019-03-05T03:05:34.696Z,2.40
2019-03-05T03:08:03.908Z,2.15
2019-03-05T03:10:32.957Z,2.60
2019-03-05T03:13:01.985Z,2.30
2019-03-05T03:15:31.664Z,3.47
2019-03-05T03:18:00.976Z,2.73
2019-03-05T03:20:30.373Z,2.00
2019-03-05T03:22:59.768Z,2.80
2019-03-05T03:25:28.894Z,2.87
2019-03-05T03:27:58.078Z,3.63
2019-03-05T03:30:28.511Z,2.10
2019-03-05T03:32:58.045Z,1.77
2019-03-05T03:35:27.126Z,1.87
2019-03-05T03:37:56.566Z,1.57
2019-03-05T03:40:25.951Z,1.50
2019-03-05T03:42:55.416Z,2.50
2019-03-05T03:45:27.877Z,1.33
2019-03-05T03:47:57.055Z,2.03
2019-03-05T03:50:26.191Z,1.00
2019-03-05T03:52:55.173Z,1.20
2019-03-05T03:55:24.398Z,2.62
2019-03-05T03:57:53.441Z,1.87
2019-03-05T04:00:26.166Z,2.13
2019-03-05T04:02:56.189Z,2.27
2019-03-05T04:05:25.687Z,2.90
2019-03-05T04:07:54.675Z,1.63
2019-03-05T04:10:24.178Z,1.87
2019-03-05T04:12:53.309Z,1.80
2019-03-05T04:15:22.487Z,0.83
2019-03-05T04:17:51.872Z,1.50
2019-03-05T04:20:40.099Z,1.70
2019-03-05T04:23:09.357Z,2.35
2019-03-05T04:25:38.338Z,1.77
2019-03-05T04:28:07.448Z,1.43
2019-03-05T04:30:36.502Z,1.50
2019-03-05T04:33:05.644Z,2.13
2019-03-05T04:35:35.097Z,1.47
2019-03-05T04:38:04.350Z,3.33
2019-03-05T04:40:33.576Z,3.97
2019-03-05T04:43:02.664Z,1.35
2019-03-05T04:45:38.939Z,2.77
2019-03-05T04:48:08.118Z,1.80
2019-03-05T04:51:02.401Z,1.43
2019-03-05T04:53:31.438Z,3.07
2019-03-05T04:56:00.839Z,2.02
2019-03-05T04:58:30.330Z,1.72
2019-03-05T05:00:59.469Z,2.87
2019-03-05T05:03:28.587Z,1.90
2019-03-05T05:05:57.995Z,3.40
2019-03-05T05:08:27.115Z,2.90
2019-03-05T05:10:56.527Z,1.90
2019-03-05T05:13:25.825Z,1.80
2019-03-05T05:15:54.958Z,2.70
2019-03-05T05:18:24.096Z,1.50
2019-03-05T05:20:53.401Z,1.70
2019-03-05T05:23:22.521Z,2.37
2019-03-05T05:25:51.564Z,2.17
2019-03-05T05:28:20.692Z,1.63
2019-03-05T05:30:50.009Z,2.50
2019-03-05T05:33:19.132Z,1.83
2019-03-05T05:35:48.714Z,1.80
2019-03-05T05:38:17.844Z,2.12
2019-03-05T05:40:47.248Z,2.67
2019-03-05T05:43:24.835Z,2.30
2019-03-05T05:45:54.141Z,2.30
2019-03-05T05:48:23.286Z,1.80
2019-03-05T05:50:52.698Z,2.73
2019-03-05T05:53:22.000Z,1.87
2019-03-05T05:55:51.668Z,1.97
2019-03-05T05:58:20.888Z,2.70
2019-03-05T06:00:52.431Z,1.40
2019-03-05T06:03:21.687Z,1.50
2019-03-05T06:05:51.173Z,2.30
2019-03-05T06:08:20.384Z,1.90
2019-03-05T06:10:52.591Z,2.07
2019-03-05T06:13:21.164Z,2.58
2019-03-05T06:15:50.347Z,1.73
2019-03-05T06:18:19.550Z,2.80
2019-03-05T06:20:48.676Z,2.30
2019-03-05T06:23:18.193Z,1.70
2019-03-05T06:25:47.397Z,1.83
2019-03-05T06:28:16.696Z,2.77
2019-03-05T06:30:46.470Z,1.60
2019-03-05T06:33:15.867Z,1.57
2019-03-05T06:35:45.443Z,2.27
2019-03-05T06:38:14.483Z,1.70
2019-03-05T06:40:43.968Z,2.60
2019-03-05T06:43:13.758Z,3.15
2019-03-05T06:45:43.141Z,2.60
2019-03-05T06:48:14.698Z,2.20
2019-03-05T06:50:44.005Z,1.90
2019-03-05T06:53:13.159Z,2.80
2019-03-05T06:55:42.437Z,2.30
2019-03-05T06:58:12.080Z,1.60
2019-03-05T07:00:41.424Z,1.80
2019-03-05T07:03:10.550Z,2.63
2019-03-05T07:06:15.246Z,1.75
2019-03-05T07:09:08.710Z,2.42
2019-03-05T07:12:14.424Z,2.23
2019-03-05T07:15:06.154Z,1.20
2019-03-05T07:17:42.241Z,2.20
2019-03-05T07:20:23.604Z,1.73
2019-03-05T07:23:18.271Z,2.77
2019-03-05T07:25:47.259Z,2.10
2019-03-05T07:28:17.223Z,1.98
2019-03-05T07:30:46.222Z,1.87
2019-03-05T07:33:15.083Z,1.90
2019-03-05T07:35:44.464Z,1.60
2019-03-05T07:38:13.307Z,1.60
2019-03-05T07:40:42.255Z,1.80
2019-03-05T07:43:11.121Z,1.82
2019-03-05T07:45:39.946Z,1.90
2019-03-05T07:48:08.818Z,2.30
2019-03-05T07:50:37.811Z,1.90
2019-03-05T07:53:06.679Z,1.40
2019-03-05T07:55:35.925Z,0.90
2019-03-05T07:58:05.064Z,3.20
2019-03-05T08:00:34.249Z,2.13
2019-03-05T08:03:03.263Z,1.57
2019-03-05T08:05:32.598Z,2.80
2019-03-05T08:08:38.273Z,1.10
2019-03-05T08:11:07.181Z,1.87
2019-03-05T08:13:59.598Z,1.17
2019-03-05T08:16:31.064Z,1.75
2019-03-05T08:18:59.947Z,1.50
2019-03-05T08:21:28.872Z,1.33
2019-03-05T08:23:57.900Z,1.77
2019-03-05T08:26:26.833Z,1.20
2019-03-05T08:28:55.877Z,1.23
2019-03-05T08:31:24.926Z,2.83
2019-03-05T08:33:53.724Z,1.53
2019-03-05T08:36:25.905Z,1.50
2019-03-05T08:38:54.813Z,1.77
2019-03-05T08:41:23.964Z,0.70
2019-03-05T08:43:54.283Z,1.50
2019-03-05T08:46:23.558Z,1.47
2019-03-05T08:48:52.375Z,1.10
2019-03-05T08:51:21.253Z,1.10
2019-03-05T08:53:50.291Z,1.03
2019-03-05T08:56:19.335Z,2.00
2019-03-05T08:58:48.162Z,1.40
2019-03-05T09:01:17.332Z,0.97
2019-03-05T09:03:46.214Z,0.87
2019-03-05T09:06:15.419Z,1.17
2019-03-05T09:08:44.286Z,1.50
2019-03-05T09:11:13.514Z,1.07
2019-03-05T09:13:42.472Z,1.40
2019-03-05T09:16:11.660Z,1.10
2019-03-05T09:18:40.791Z,1.00
2019-03-05T09:21:09.695Z,1.90
2019-03-05T09:23:38.562Z,0.77
2019-03-05T09:26:07.528Z,1.40
2019-03-05T09:28:36.659Z,1.33
2019-03-05T09:31:05.608Z,1.00
2019-03-05T09:33:34.784Z,2.97
2019-03-05T09:36:03.769Z,1.20
2019-03-05T09:38:32.584Z,2.13
2019-03-05T09:41:01.466Z,0.73
2019-03-05T09:43:30.624Z,1.43
2019-03-05T09:45:59.815Z,0.83
2019-03-05T09:48:28.724Z,1.23
2019-03-05T09:50:57.606Z,1.10
2019-03-05T09:53:26.518Z,1.23
2019-03-05T09:55:55.531Z,1.10
2019-03-05T09:58:24.393Z,0.77
2019-03-05T10:00:53.457Z,1.13
2019-03-05T10:03:22.326Z,1.40
2019-03-05T10:05:51.655Z,1.20
2019-03-05T10:08:31.676Z,1.10
2019-03-05T10:10:51.436Z,0.90
2019-03-05T10:13:20.393Z,0.93
2019-03-05T10:15:49.529Z,1.07
2019-03-05T10:18:18.499Z,0.50
2019-03-05T10:20:47.510Z,0.50
2019-03-05T10:23:16.528Z,0.70
2019-03-05T10:25:45.548Z,1.27
2019-03-05T10:28:14.571Z,0.90
2019-03-05T10:30:43.596Z,0.80
2019-03-05T10:33:13.840Z,0.83
2019-03-05T10:35:43.023Z,0.40
2019-03-05T10:38:12.638Z,0.40
2019-03-05T10:40:41.906Z,1.10
2019-03-05T10:43:11.473Z,0.60
2019-03-05T10:45:42.598Z,0.40
2019-03-05T10:48:11.651Z,0.47
2019-03-05T10:50:40.515Z,0.50
2019-03-05T10:53:09.720Z,0.50
2019-03-05T10:55:39.484Z,0.80
2019-03-05T10:58:08.455Z,0.53
2019-03-05T11:00:39.511Z,0.40
2019-03-05T11:03:08.622Z,0.37
2019-03-05T11:05:38.178Z,0.57
2019-03-05T11:08:09.521Z,0.63
2019-03-05T11:10:41.085Z,0.50
2019-03-05T11:13:11.463Z,0.87
2019-03-05T11:15:40.707Z,0.53
2019-03-05T11:18:10.114Z,0.50
2019-03-05T11:20:39.498Z,0.80
2019-03-05T11:23:08.679Z,1.05
2019-03-05T11:25:37.639Z,0.70
2019-03-05T11:28:06.904Z,0.77
2019-03-05T11:30:36.748Z,0.85
2019-03-05T11:33:05.908Z,0.60
2019-03-05T11:35:35.105Z,1.43
2019-03-05T11:38:04.486Z,1.27
2019-03-05T11:40:33.448Z,1.20
2019-03-05T11:43:08.590Z,0.85
2019-03-05T11:45:37.962Z,1.17
2019-03-05T11:48:07.099Z,1.22
2019-03-05T11:50:36.501Z,1.43
2019-03-05T11:53:05.491Z,1.30
2019-03-05T11:55:34.531Z,0.90
2019-03-05T11:58:04.047Z,0.87
2019-03-05T12:01:04.164Z,1.10
2019-03-05T12:03:33.199Z,0.63
2019-03-05T12:06:02.149Z,0.77
2019-03-05T12:08:31.199Z,0.97
2019-03-05T12:11:00.363Z,0.60
2019-03-05T12:13:29.566Z,0.40
2019-03-05T12:15:59.578Z,0.70
2019-03-05T12:18:28.887Z,0.40
2019-03-05T12:20:57.844Z,0.53
2019-03-05T12:23:26.664Z,0.63
2019-03-05T12:25:55.591Z,0.40
2019-03-05T12:28:24.628Z,0.70
2019-03-05T12:30:53.412Z,0.43
2019-03-05T12:33:22.219Z,1.00
2019-03-05T12:35:51.262Z,0.80
2019-03-05T12:38:20.495Z,0.70
2019-03-05T12:40:49.479Z,0.50
2019-03-05T12:43:18.660Z,1.03
2019-03-05T12:45:47.739Z,0.70
2019-03-05T12:48:16.692Z,0.80
2019-03-05T12:50:45.601Z,0.90
2019-03-05T12:53:16.032Z,0.80
2019-03-05T12:55:45.151Z,0.60
2019-03-05T12:58:14.222Z,0.73
2019-03-05T13:00:43.173Z,0.93
2019-03-05T13:03:12.410Z,0.90
2019-03-05T13:05:41.453Z,1.03
2019-03-05T13:08:10.450Z,0.60
2019-03-05T13:10:39.356Z,0.60
2019-03-05T13:13:10.368Z,0.73
2019-03-05T13:15:39.938Z,0.50
2019-03-05T13:18:09.298Z,1.17
2019-03-05T13:20:38.258Z,0.87
2019-03-05T13:23:09.640Z,0.90
2019-03-05T13:25:38.389Z,0.80
2019-03-05T13:28:07.777Z,0.83
2019-03-05T13:30:36.861Z,0.97
2019-03-05T13:33:05.798Z,0.50
2019-03-05T13:35:34.869Z,0.80
2019-03-05T13:38:07.385Z,0.77
2019-03-05T13:40:38.261Z,1.27
2019-03-05T13:43:06.591Z,0.57
2019-03-05T13:45:35.819Z,0.70
2019-03-05T13:48:29.641Z,0.50
2019-03-05T13:51:19.440Z,1.27
2019-03-05T13:54:25.775Z,1.40
2019-03-05T13:57:44.560Z,0.70
2019-03-05T14:00:14.131Z,0.87
2019-03-05T14:03:00.298Z,0.47
2019-03-05T14:05:52.331Z,0.73
2019-03-05T14:08:48.653Z,0.90
2019-03-05T14:11:17.719Z,0.83
2019-03-05T14:13:46.606Z,0.60
2019-03-05T14:16:18.075Z,0.50
2019-03-05T14:18:47.336Z,0.60
2019-03-05T14:21:17.125Z,0.40
2019-03-05T14:23:46.788Z,0.53
2019-03-05T14:26:15.792Z,0.57
2019-03-05T14:28:44.739Z,0.83
2019-03-05T14:31:13.840Z,0.65
2019-03-05T14:33:42.931Z,0.50
2019-03-05T14:36:11.803Z,0.50
2019-03-05T14:38:41.018Z,0.70
2019-03-05T14:41:10.144Z,0.47
2019-03-05T14:43:39.518Z,0.40
2019-03-05T14:46:08.917Z,0.50
2019-03-05T14:48:38.382Z,0.97
2019-03-05T14:51:07.246Z,0.80
2019-03-05T14:53:36.408Z,0.30
2019-03-05T14:56:05.423Z,0.67
2019-03-05T14:58:34.320Z,0.43
2019-03-05T15:01:03.470Z,0.40
2019-03-05T15:03:33.235Z,0.40
2019-03-05T15:06:02.480Z,0.40
2019-03-05T15:08:31.566Z,0.60
2019-03-05T15:11:00.551Z,0.53
2019-03-05T15:13:29.813Z,1.13
2019-03-05T15:15:59.471Z,0.40
2019-03-05T15:18:28.998Z,0.33
2019-03-05T15:20:58.366Z,0.30
2019-03-05T15:23:27.443Z,0.60
2019-03-05T15:25:56.739Z,0.60
2019-03-05T15:28:25.951Z,0.53
2019-03-05T15:30:55.023Z,1.03
2019-03-05T15:33:24.159Z,0.50
2019-03-05T15:35:53.220Z,0.53
2019-03-05T15:38:22.547Z,0.60
2019-03-05T15:40:51.856Z,0.77
2019-03-05T15:43:21.172Z,0.50
2019-03-05T15:45:50.571Z,0.60
2019-03-05T15:48:19.749Z,0.70
2019-03-05T15:50:48.637Z,0.50
2019-03-05T15:53:17.687Z,0.33
2019-03-05T15:55:46.587Z,0.57
2019-03-05T15:58:15.426Z,0.60
2019-03-05T16:00:44.839Z,0.50
2019-03-05T16:03:14.126Z,0.57
2019-03-05T16:05:43.122Z,0.50
2019-03-05T16:08:12.138Z,0.70
2019-03-05T16:10:41.535Z,0.80
2019-03-05T16:13:10.334Z,0.40
2019-03-05T16:15:41.885Z,0.50
2019-03-05T16:18:10.115Z,0.70
2019-03-05T16:20:39.152Z,0.50
2019-03-05T16:23:08.363Z,0.37
2019-03-05T16:25:37.456Z,0.50
2019-03-05T16:28:07.584Z,0.73
2019-03-05T16:31:01.355Z,0.47
2019-03-05T16:33:36.833Z,0.50
2019-03-05T16:36:16.575Z,0.53
2019-03-05T16:38:56.756Z,0.40
2019-03-05T16:41:57.405Z,0.63
2019-03-05T16:44:36.829Z,0.70
2019-03-05T16:47:24.855Z,0.53
2019-03-05T16:50:31.287Z,0.90
2019-03-05T16:53:09.831Z,0.43
2019-03-05T16:55:46.739Z,0.60
2019-03-05T16:58:35.008Z,0.50
2019-03-05T17:01:23.212Z,0.63
2019-03-05T17:04:11.847Z,0.70
2019-03-05T17:06:58.425Z,0.50
2019-03-05T17:09:43.528Z,0.60
2019-03-05T17:12:12.451Z,0.93
2019-03-05T17:14:41.350Z,0.60
2019-03-05T17:17:10.321Z,0.60
2019-03-05T17:19:39.139Z,0.60
2019-03-05T17:22:08.011Z,0.70
2019-03-05T17:24:36.972Z,0.53
2019-03-05T17:27:05.915Z,0.97
2019-03-05T17:29:34.773Z,1.40
2019-03-05T17:32:03.725Z,1.00
2019-03-05T17:34:32.812Z,0.80
2019-03-05T17:37:02.155Z,1.37
2019-03-05T17:39:31.345Z,1.93
2019-03-05T17:42:00.317Z,0.90
2019-03-05T17:44:29.897Z,1.07
2019-03-05T17:46:58.887Z,1.07
2019-03-05T17:49:27.737Z,1.60
2019-03-05T17:51:56.710Z,1.37
2019-03-05T17:54:26.409Z,1.60
2019-03-05T17:56:55.746Z,0.93
2019-03-05T17:59:24.627Z,1.90
2019-03-05T18:01:53.888Z,1.07
2019-03-05T18:04:22.764Z,1.03
2019-03-05T18:06:51.692Z,1.40
2019-03-05T18:09:21.067Z,1.40
2019-03-05T18:11:50.192Z,1.13
2019-03-05T18:14:19.099Z,1.23
2019-03-05T18:16:48.193Z,1.77
2019-03-05T18:19:17.422Z,1.67
2019-03-05T18:21:46.393Z,1.77
2019-03-05T18:24:15.299Z,1.70
2019-03-05T18:26:44.509Z,1.10
2019-03-05T18:29:13.747Z,1.87
2019-03-05T18:31:42.681Z,2.30
2019-03-05T18:34:11.732Z,2.30
2019-03-05T18:36:40.624Z,2.73
2019-03-05T18:39:10.115Z,2.37
2019-03-05T18:41:39.466Z,2.70
2019-03-05T18:44:08.471Z,1.90
2019-03-05T18:46:37.449Z,1.73
2019-03-05T18:49:06.897Z,1.60
2019-03-05T18:51:35.863Z,1.60
2019-03-05T18:54:05.111Z,1.50
2019-03-05T18:56:33.994Z,1.70
2019-03-05T18:59:03.095Z,1.70
2019-03-05T19:01:32.133Z,1.97
2019-03-05T19:04:01.255Z,1.80
2019-03-05T19:06:30.062Z,1.93
2019-03-05T19:08:59.476Z,1.77
2019-03-05T19:11:28.443Z,1.90
2019-03-05T19:13:57.403Z,1.30
2019-03-05T19:16:26.392Z,1.40
2019-03-05T19:18:55.309Z,1.10
2019-03-05T19:21:24.486Z,1.83
2019-03-05T19:23:53.396Z,1.63
2019-03-05T19:26:22.295Z,2.00
2019-03-05T19:28:51.539Z,1.75
2019-03-05T19:31:20.784Z,1.83
2019-03-05T19:33:50.075Z,3.77
2019-03-05T19:36:18.959Z,2.10
2019-03-05T19:38:48.089Z,2.40
2019-03-05T19:41:17.203Z,3.10
2019-03-05T19:43:46.045Z,3.40
2019-03-05T19:46:15.255Z,2.20
2019-03-05T19:48:44.086Z,3.27
2019-03-05T19:51:13.137Z,2.60
2019-03-05T19:53:42.085Z,2.80
2019-03-05T19:56:11.396Z,2.30
2019-03-05T19:58:40.406Z,3.00
2019-03-05T20:01:12.248Z,2.25
2019-03-05T20:03:41.136Z,2.50
2019-03-05T20:06:10.364Z,2.08
2019-03-05T20:08:40.462Z,2.60
2019-03-05T20:11:09.578Z,2.60
2019-03-05T20:13:39.377Z,2.73
2019-03-05T20:16:08.843Z,2.83
2019-03-05T20:18:37.750Z,3.72
2019-03-05T20:21:07.818Z,3.73
2019-03-05T20:23:36.785Z,4.30
2019-03-05T20:26:05.754Z,4.17
2019-03-05T20:28:35.890Z,5.35
2019-03-05T20:31:05.092Z,4.37
2019-03-05T20:33:34.322Z,5.50
2019-03-05T20:36:03.276Z,4.60
2019-03-05T20:38:32.174Z,4.47
2019-03-05T20:41:01.185Z,5.25
2019-03-05T20:43:30.083Z,5.25
2019-03-05T20:46:03.550Z,4.70
2019-03-05T20:48:32.507Z,6.47
2019-03-05T20:51:01.507Z,4.65
2019-03-05T20:53:30.796Z,5.90
2019-03-05T20:56:00.106Z,5.65
2019-03-05T20:58:29.431Z,5.50
2019-03-05T21:00:58.380Z,4.43
2019-03-05T21:03:27.565Z,5.57
2019-03-05T21:05:56.438Z,6.47
2019-03-05T21:08:25.388Z,6.50
2019-03-05T21:10:54.570Z,5.90
2019-03-05T21:13:23.541Z,7.80
2019-03-05T21:15:52.584Z,7.30
2019-03-05T21:18:21.647Z,6.65
2019-03-05T21:20:50.631Z,9.88
2019-03-05T21:23:19.695Z,9.48
2019-03-05T21:25:48.676Z,7.87
2019-03-05T21:28:17.632Z,6.78
2019-03-05T21:30:46.796Z,7.55
2019-03-05T21:33:15.687Z,7.15
2019-03-05T21:35:45.016Z,7.97
2019-03-05T21:38:14.229Z,7.50
2019-03-05T21:40:43.206Z,6.80
2019-03-05T21:43:12.086Z,7.17
2019-03-05T21:45:41.269Z,7.33
2019-03-05T21:48:10.190Z,8.75
2019-03-05T21:50:39.162Z,7.70
2019-03-05T21:53:08.471Z,9.90
2019-03-05T21:55:37.637Z,8.45
2019-03-05T21:58:06.449Z,8.27
2019-03-05T22:00:35.547Z,8.70
2019-03-05T22:03:04.975Z,7.35
2019-03-05T22:05:33.963Z,8.27
2019-03-05T22:08:02.950Z,8.65
2019-03-05T22:10:32.074Z,9.20
2019-03-05T22:13:01.031Z,8.50
2019-03-05T22:15:30.291Z,9.20
2019-03-05T22:17:59.188Z,9.50
2019-03-05T22:20:28.353Z,8.73
2019-03-05T22:22:57.580Z,7.80
2019-03-05T22:25:28.783Z,8.97
2019-03-05T22:27:57.362Z,8.50
2019-03-05T22:30:27.587Z,8.30
2019-03-05T22:32:56.777Z,8.93
2019-03-05T22:35:26.033Z,9.37
2019-03-05T22:37:54.980Z,8.83
2019-03-05T22:40:24.356Z,8.20
2019-03-05T22:42:53.484Z,8.10
2019-03-05T22:45:23.160Z,9.50
2019-03-05T22:47:52.138Z,9.40
2019-03-05T22:50:21.106Z,8.95
2019-03-05T22:52:50.327Z,8.40
2019-03-05T22:55:19.355Z,8.18
2019-03-05T22:57:48.315Z,8.78
2019-03-05T23:00:31.411Z,8.98
2019-03-05T23:03:00.879Z,9.58
2019-03-05T23:05:29.982Z,9.63
2019-03-05T23:07:59.191Z,9.00
2019-03-05T23:10:28.273Z,9.47
2019-03-05T23:12:57.226Z,8.50
2019-03-05T23:15:27.251Z,8.78
2019-03-05T23:17:56.462Z,8.53
2019-03-05T23:20:25.458Z,8.43
2019-03-05T23:22:54.665Z,8.27
2019-03-05T23:25:23.602Z,9.40
2019-03-05T23:27:52.589Z,9.78
2019-03-05T23:30:21.607Z,9.57
2019-03-05T23:32:50.739Z,9.83
2019-03-05T23:35:19.731Z,10.10
2019-03-05T23:37:48.705Z,8.90
2019-03-05T23:40:17.824Z,8.53
2019-03-05T23:42:46.795Z,9.37
2019-03-05T23:45:15.750Z,10.13
2019-03-05T23:47:44.981Z,9.97
2019-03-05T23:50:14.310Z,8.90
2019-03-05T23:52:43.352Z,8.40
2019-03-05T23:55:12.415Z,8.20
2019-03-05T23:57:41.314Z,8.40
